General Guemes, Argentina
Current Conditions -  °F | °C
As of 4:00 PM on Thursday 27 Nov 2014 (Local Time) from SASJ Reporting Station
Thunderstorm Thunderstorm  
Wind Chill: 81°   Ceiling: Unl
Heat Index: 81°   Visibility: 6mi
Dew Point: 61°   Wind: 6mph
Humidity: 51%   Direction: 50°NE
Pressure: 29.97"   Gusts: NA
Location:  24.67°S, 65.05°W
Report Text: SASJ 271900Z 05005KT 320V110 9999 TS SCT025FEW040CB 27/16 Q1015
Loading
Personal Weather Stations






























Interactive Weather Map New forecast layout! Learn more

10-Day Weather Forecast

Advertisements
Track Severe Weather on mobile